Ploce, Croatia

7:49 AM CET on January 27, 2015 (GMT +0100)
IDALMACI40 | Change Station
CLOSE
Current Station
Personal Weather Station
Location: Komin, DALMACIJA
Elevation: 17 ft
Nearby Weather Stations

Elev 17 ft 43.05 °N, 17.53 °E | Updated 32 seconds ago

Partly Cloudy
Partly Cloudy
33.8 °F
Feels Like 34 °F
N
0.0
Wind Variable Wind from NW
Gusts 0.0 mph

Today
High -- | Low -- °F
--% Chance of Precip.
Yesterday
High -- | Low -- °F
Precip. -- in
7:10 AM 4:55 PM
Waxing Crescent, 51% visible
Pressure 29.92 in
Visibility 6.2 miles
Clouds Few 4500 ft
Windchill 34 °F
Dew Point 23 °F
Humidity 65%
Rainfall 0.00 in
Snow Depth Not available.
UV 0 out of 12
Pollen Not available.
Air Quality Not available.
Flu Activity Not available.
METAR LQMO 270630Z VRB01KT 9999 FEW045 M02/M04 Q1013

More Conditions Fewer Conditions

Pressure 29.92 in
Visibility 6.2 miles
Clouds Few 4500 ft
Windchill 34 °F
Dew Point 23 °F
Humidity 65%
Rainfall 0.00 in
Snow Depth Not available.
UV 0 out of 12
Pollen Not available.
Air Quality Not available.
Flu Activity Not available.
METAR LQMO 270630Z VRB01KT 9999 FEW045 M02/M04 Q1013

More Conditions Fewer Conditions

10-Day Weather Forecast

Almanac

Astronomy

Jan. 27, 2015 Rise Set
Actual Time
Civil Twilight
Nautical Twilight
Astronomical Twilight
Moon
Length of Visible Light
Length of Day
Tomorrow will be .
, % of the Moon is Illuminated

Today's Extremes

Country Highs Country Lows

Community

WunderPhotos

Upload Photos

1,790,545 photos uploaded!

WunderBlogs® & News

Nearby

Air Quality

  Air Quality AQ Index Pollutant
Not available.

Snow Depth

Station Depth Elevation

Earthquake Activity

City Distance Mag. Time & Date
Minimum magnitude displayed is 2.5.

Coastal Water Temperatures

Place Temperature

Nearby Weather Stations